Time;durP1;ratioP1;P1;durP2;ratioP2;P2;SDS_P1;SDS_P2;PMS_P1;PMS_P2;Temp;Humidity;BMP_temperature;BMP_pressure;BME280_temperature;BME280_humidity;BME280_pressure;Samples;Min_cycle;Max_cycle;Signal;HPM_P1;HPM_P2
2023/08/08 00:01:03;;;;;;;1.50;1.13;;;12.90;99.90;;;;;;5073215;28;20800;-72
2023/08/08 00:03:29;;;;;;;1.50;1.40;;;12.80;99.90;;;;;;5072656;28;20938;-73
2023/08/08 00:05:56;;;;;;;2.00;1.80;;;12.80;99.90;;;;;;5072777;28;20455;-73
2023/08/08 00:08:24;;;;;;;1.80;1.33;;;12.80;99.90;;;;;;5072079;28;20474;-73
2023/08/08 00:10:51;;;;;;;1.17;1.00;;;12.80;99.90;;;;;;5072966;28;20528;-73
2023/08/08 00:13:17;;;;;;;1.40;1.30;;;12.90;99.90;;;;;;5072771;28;20455;-73
2023/08/08 00:15:44;;;;;;;1.60;1.37;;;12.80;99.90;;;;;;5072924;28;20469;-72
2023/08/08 00:18:11;;;;;;;1.23;1.00;;;12.80;99.90;;;;;;5072524;28;20477;-73
2023/08/08 00:20:38;;;;;;;1.60;1.37;;;12.90;99.90;;;;;;5072607;28;20485;-72
2023/08/08 00:23:05;;;;;;;1.43;1.20;;;12.90;99.90;;;;;;5072580;28;20466;-73
2023/08/08 00:25:33;;;;;;;1.33;1.23;;;12.90;99.90;;;;;;5072565;28;20454;-73
2023/08/08 00:27:59;;;;;;;1.70;1.60;;;12.90;99.90;;;;;;5072265;28;20474;-73
2023/08/08 00:30:26;;;;;;;1.17;1.07;;;12.90;99.90;;;;;;5072289;28;20455;-72
2023/08/08 00:32:53;;;;;;;1.80;1.70;;;12.90;99.90;;;;;;5072646;28;20451;-73
2023/08/08 00:35:20;;;;;;;1.30;1.10;;;13.00;99.90;;;;;;5072261;28;20857;-73
2023/08/08 00:37:46;;;;;;;1.53;1.40;;;13.00;99.90;;;;;;5072035;28;20462;-73
2023/08/08 00:40:13;;;;;;;1.57;1.47;;;13.10;99.90;;;;;;5072019;28;20474;-73
2023/08/08 00:42:41;;;;;;;2.13;1.13;;;13.10;99.90;;;;;;5071550;28;20545;-72
2023/08/08 00:45:09;;;;;;;1.33;1.17;;;13.10;99.90;;;;;;5072064;28;20462;-73
2023/08/08 00:47:36;;;;;;;1.57;1.47;;;13.10;99.90;;;;;;5071714;28;20450;-73
2023/08/08 00:50:04;;;;;;;1.63;1.23;;;13.10;99.90;;;;;;5071811;28;20454;-73
2023/08/08 00:52:31;;;;;;;1.37;1.27;;;13.10;99.90;;;;;;5071969;28;20957;-73
2023/08/08 00:54:58;;;;;;;1.73;1.27;;;13.10;99.90;;;;;;5072093;28;20457;-72
2023/08/08 00:57:25;;;;;;;1.43;1.03;;;13.10;99.90;;;;;;5071638;28;20458;-73
2023/08/08 00:59:54;;;;;;;1.40;1.30;;;13.10;99.90;;;;;;5071474;28;20494;-72
2023/08/08 01:02:20;;;;;;;2.30;1.50;;;13.10;99.90;;;;;;5071521;28;20532;-72
2023/08/08 01:04:47;;;;;;;2.00;1.60;;;13.10;99.90;;;;;;5071941;28;20466;-73
2023/08/08 01:07:23;;;;;;;1.40;1.30;;;13.20;99.90;;;;;;5071597;28;20822;-72
2023/08/08 01:10:01;;;;;;;1.40;1.30;;;13.20;99.90;;;;;;5071453;28;20482;-73
2023/08/08 01:12:28;;;;;;;2.53;2.00;;;13.20;99.90;;;;;;5071522;28;20463;-73
2023/08/08 01:14:57;;;;;;;2.33;1.50;;;13.20;99.90;;;;;;5071580;28;20459;-73
2023/08/08 01:17:25;;;;;;;2.00;1.43;;;13.10;99.90;;;;;;5070962;28;20451;-73
2023/08/08 01:19:52;;;;;;;3.00;1.77;;;13.10;99.90;;;;;;5070980;28;20993;-73
2023/08/08 01:22:25;;;;;;;3.00;1.60;;;13.20;99.90;;;;;;5071202;28;20809;-73
2023/08/08 01:24:55;;;;;;;1.60;1.20;;;13.20;99.90;;;;;;5071570;28;20458;-73
2023/08/08 01:27:22;;;;;;;1.50;1.40;;;13.20;99.90;;;;;;5070828;28;20486;-73
2023/08/08 01:29:49;;;;;;;1.50;1.40;;;13.20;99.90;;;;;;5070989;28;20478;-73
2023/08/08 01:32:15;;;;;;;1.40;1.30;;;13.20;99.90;;;;;;5071078;28;20466;-73
2023/08/08 01:34:42;;;;;;;1.30;1.07;;;13.20;99.90;;;;;;5071013;28;20458;-72
2023/08/08 01:37:15;;;;;;;1.43;1.33;;;13.20;99.90;;;;;;5070908;28;20823;-73
2023/08/08 01:39:43;;;;;;;3.20;1.30;;;13.30;99.90;;;;;;5070459;28;21004;-73
2023/08/08 01:42:13;;;;;;;1.33;1.23;;;13.30;99.90;;;;;;5070922;28;20450;-73
2023/08/08 01:44:41;;;;;;;2.07;1.83;;;13.30;99.90;;;;;;5070992;28;20451;-73
2023/08/08 01:47:08;;;;;;;1.90;1.60;;;13.30;99.90;;;;;;5070445;28;20460;-73
2023/08/08 01:49:35;;;;;;;2.53;1.57;;;13.30;99.90;;;;;;5070473;28;20474;-73
2023/08/08 01:52:02;;;;;;;1.83;1.60;;;13.20;99.90;;;;;;5070842;28;20455;-73
2023/08/08 01:54:29;;;;;;;1.73;1.50;;;13.20;99.90;;;;;;5070643;28;20461;-72
2023/08/08 01:56:55;;;;;;;1.63;1.37;;;13.20;99.90;;;;;;5070698;28;20461;-73
2023/08/08 01:59:24;;;;;;;2.40;1.60;;;13.20;99.90;;;;;;5069996;28;20482;-73
2023/08/08 02:01:50;;;;;;;1.70;1.60;;;13.20;99.90;;;;;;5070692;28;20459;-73
2023/08/08 02:04:17;;;;;;;2.17;1.97;;;13.10;99.90;;;;;;5070595;28;20459;-73
2023/08/08 02:06:44;;;;;;;1.97;1.40;;;13.10;99.90;;;;;;5070395;28;20866;-72
2023/08/08 02:09:10;;;;;;;3.13;1.30;;;13.10;99.90;;;;;;5070122;28;20483;-73
2023/08/08 02:11:37;;;;;;;1.30;1.20;;;13.10;99.90;;;;;;5070572;28;20455;-72
2023/08/08 02:14:04;;;;;;;1.90;1.40;;;13.10;99.90;;;;;;5070439;28;20466;-72
2023/08/08 02:16:32;;;;;;;2.10;1.83;;;13.10;99.90;;;;;;5069981;28;20461;-73
2023/08/08 02:18:59;;;;;;;2.10;1.60;;;13.00;99.90;;;;;;5070273;28;20474;-72
2023/08/08 02:21:25;;;;;;;1.43;1.30;;;13.00;99.90;;;;;;5070145;28;20977;-73
2023/08/08 02:23:52;;;;;;;1.67;1.47;;;13.00;99.90;;;;;;5070504;28;20473;-73
2023/08/08 02:26:19;;;;;;;1.60;1.33;;;13.00;99.90;;;;;;5070176;28;20839;-72
2023/08/08 02:28:46;;;;;;;1.87;1.67;;;13.00;99.90;;;;;;5069995;28;20559;-73
2023/08/08 02:31:14;;;;;;;1.57;1.40;;;13.00;99.90;;;;;;5070228;28;20451;-74
2023/08/08 02:33:42;;;;;;;2.03;1.57;;;13.00;99.90;;;;;;5070246;28;20885;-72
2023/08/08 02:36:09;;;;;;;1.33;1.20;;;13.00;99.90;;;;;;5070039;28;20470;-73
2023/08/08 02:38:35;;;;;;;1.37;1.27;;;13.00;99.90;;;;;;5069814;28;21024;-73
2023/08/08 02:41:02;;;;;;;1.43;1.33;;;13.00;99.90;;;;;;5070177;28;20478;-72
2023/08/08 02:43:29;;;;;;;1.73;1.57;;;13.00;99.90;;;;;;5070058;28;20454;-73
2023/08/08 02:45:55;;;;;;;1.67;1.50;;;13.00;99.90;;;;;;5070126;28;20787;-72
2023/08/08 02:48:22;;;;;;;1.63;1.50;;;13.00;99.90;;;;;;5069512;28;20493;-73
2023/08/08 02:50:50;;;;;;;1.77;1.47;;;13.00;99.90;;;;;;5070196;28;20819;-73
2023/08/08 02:53:17;;;;;;;1.67;1.57;;;13.00;99.90;;;;;;5070063;28;20461;-73
2023/08/08 02:55:44;;;;;;;1.53;1.20;;;13.00;99.90;;;;;;5069916;28;20828;-73
2023/08/08 02:58:10;;;;;;;1.87;1.43;;;12.90;99.90;;;;;;5069767;28;20481;-73
2023/08/08 03:00:37;;;;;;;1.53;1.43;;;13.00;99.90;;;;;;5069796;28;20486;-73
2023/08/08 03:03:04;;;;;;;2.67;1.63;;;12.90;99.90;;;;;;5070090;28;20454;-73
2023/08/08 03:05:31;;;;;;;3.53;1.77;;;12.90;99.90;;;;;;5072593;28;20477;-73
2023/08/08 03:07:59;;;;;;;2.17;1.47;;;12.90;99.90;;;;;;5073638;28;20457;-73
2023/08/08 03:10:26;;;;;;;1.60;1.47;;;12.80;99.90;;;;;;5073879;28;20469;-73
2023/08/08 03:12:53;;;;;;;1.83;1.50;;;12.80;99.90;;;;;;5074005;28;20461;-73
2023/08/08 03:15:19;;;;;;;4.20;1.33;;;12.80;99.90;;;;;;5073735;28;20461;-72
2023/08/08 03:17:46;;;;;;;1.27;1.17;;;12.80;99.90;;;;;;5073113;28;20451;-73
2023/08/08 03:20:13;;;;;;;1.20;0.90;;;12.80;99.90;;;;;;5073537;28;20483;-74
2023/08/08 03:22:40;;;;;;;1.60;1.50;;;12.80;99.90;;;;;;5072855;28;20841;-72
2023/08/08 03:25:09;;;;;;;1.70;1.43;;;12.70;99.90;;;;;;5073672;28;20464;-73
2023/08/08 03:27:36;;;;;;;1.47;1.37;;;12.70;99.90;;;;;;5073083;28;21030;-73
2023/08/08 03:30:03;;;;;;;1.87;1.53;;;12.70;99.90;;;;;;5073056;28;20473;-72
2023/08/08 03:32:30;;;;;;;2.30;1.67;;;12.70;99.90;;;;;;5063014;28;20465;-71
2023/08/08 03:34:57;;;;;;;2.13;1.50;;;12.80;99.90;;;;;;5050233;28;20459;-72
2023/08/08 03:37:24;;;;;;;1.30;1.17;;;12.80;99.90;;;;;;5046058;28;20467;-72
2023/08/08 03:39:50;;;;;;;1.67;1.53;;;12.80;99.90;;;;;;5047586;28;20568;-72
2023/08/08 03:42:18;;;;;;;2.00;1.60;;;12.80;99.90;;;;;;5045431;28;20460;-73
2023/08/08 03:44:46;;;;;;;1.73;1.40;;;12.70;99.90;;;;;;5040302;28;20483;-72
2023/08/08 03:47:12;;;;;;;2.20;1.50;;;12.70;99.90;;;;;;5043779;28;20491;-73
2023/08/08 03:49:39;;;;;;;2.00;1.53;;;12.80;99.90;;;;;;5047000;28;20483;-72
2023/08/08 03:52:06;;;;;;;5.10;1.80;;;12.80;99.90;;;;;;5045185;28;20451;-72
2023/08/08 03:54:33;;;;;;;2.93;1.47;;;12.80;99.90;;;;;;5046483;28;20462;-72
2023/08/08 03:57:00;;;;;;;1.80;1.40;;;12.80;99.90;;;;;;5049502;28;20455;-72
2023/08/08 03:59:29;;;;;;;2.10;1.53;;;12.80;99.90;;;;;;5049582;28;20483;-72
2023/08/08 04:01:55;;;;;;;1.47;1.30;;;12.80;99.90;;;;;;5053839;28;20532;-73
2023/08/08 04:04:22;;;;;;;1.50;1.40;;;12.80;99.90;;;;;;5050885;28;20460;-72
2023/08/08 04:06:49;;;;;;;1.67;1.57;;;12.80;99.90;;;;;;5053103;28;20457;-72
2023/08/08 04:09:15;;;;;;;2.10;1.57;;;12.90;99.90;;;;;;5051417;28;21001;-72
2023/08/08 04:11:42;;;;;;;1.90;1.37;;;12.90;99.90;;;;;;5051245;28;20452;-70
2023/08/08 04:14:09;;;;;;;1.60;1.40;;;12.90;99.90;;;;;;5052940;28;20937;-71
2023/08/08 04:16:37;;;;;;;2.07;1.00;;;13.00;99.90;;;;;;5049177;28;20460;-71
2023/08/08 04:19:04;;;;;;;3.10;1.80;;;13.00;99.90;;;;;;5053388;28;20493;-71
2023/08/08 04:21:32;;;;;;;1.60;1.50;;;13.00;99.90;;;;;;5049251;28;20487;-72
2023/08/08 04:23:59;;;;;;;1.43;1.27;;;13.00;99.90;;;;;;5053593;28;20459;-71
2023/08/08 04:26:25;;;;;;;2.30;1.83;;;13.10;99.90;;;;;;5049274;28;20453;-71
2023/08/08 04:28:52;;;;;;;1.70;1.30;;;13.10;99.90;;;;;;5052294;28;21132;-71
2023/08/08 04:31:19;;;;;;;1.60;1.27;;;13.10;99.90;;;;;;5060935;28;20490;-70
2023/08/08 04:33:47;;;;;;;1.80;1.63;;;13.10;99.90;;;;;;5069672;28;20455;-71
2023/08/08 04:36:14;;;;;;;2.43;1.37;;;13.10;99.90;;;;;;5071156;28;20461;-71
2023/08/08 04:38:41;;;;;;;1.87;1.30;;;13.00;99.90;;;;;;5071818;28;20830;-71
2023/08/08 04:41:07;;;;;;;1.43;1.13;;;13.00;99.90;;;;;;5072252;28;20485;-70
2023/08/08 04:43:34;;;;;;;1.70;1.50;;;13.00;99.90;;;;;;5072306;28;20455;-70
2023/08/08 04:46:01;;;;;;;1.97;1.57;;;13.00;99.90;;;;;;5071789;28;20454;-70
2023/08/08 04:48:27;;;;;;;1.63;1.47;;;13.00;99.90;;;;;;5086179;22;20489;-91
2023/08/08 04:50:56;;;;;;;1.80;1.30;;;13.00;99.90;;;;;;5064325;28;20444;-90
2023/08/08 04:53:22;;;;;;;1.73;1.50;;;13.10;99.90;;;;;;5065726;28;20446;-90
2023/08/08 04:55:49;;;;;;;3.50;1.53;;;13.10;99.90;;;;;;5063853;28;20451;-91
2023/08/08 04:58:16;;;;;;;1.33;1.17;;;13.00;99.90;;;;;;5069382;28;20569;-90
2023/08/08 05:00:43;;;;;;;3.83;1.57;;;13.00;99.90;;;;;;5073836;28;20487;-90
2023/08/08 05:03:09;;;;;;;2.10;1.43;;;13.00;99.90;;;;;;5073487;28;20486;-90
2023/08/08 05:05:36;;;;;;;1.80;1.30;;;13.00;99.90;;;;;;5073872;28;20462;-90
2023/08/08 05:08:05;;;;;;;1.40;1.30;;;13.10;99.90;;;;;;5072671;28;20971;-91
2023/08/08 05:10:32;;;;;;;1.40;1.13;;;13.20;99.90;;;;;;5073247;28;20483;-91
2023/08/08 05:12:58;;;;;;;1.60;1.50;;;13.20;99.90;;;;;;5072775;28;20940;-91
2023/08/08 05:15:25;;;;;;;1.33;1.23;;;13.20;99.90;;;;;;5073307;28;20530;-91
2023/08/08 05:17:53;;;;;;;1.50;1.40;;;13.20;99.90;;;;;;5072749;28;20853;-91
2023/08/08 05:20:21;;;;;;;2.45;1.70;;;13.30;99.90;;;;;;5073668;28;20458;-91
2023/08/08 05:22:48;;;;;;;2.40;1.37;;;13.30;99.90;;;;;;5073865;28;20207;-91
2023/08/08 05:25:16;;;;;;;2.53;1.33;;;13.30;99.90;;;;;;5074496;28;20463;-91
2023/08/08 05:27:43;;;;;;;2.20;1.60;;;13.20;99.90;;;;;;5076070;28;20475;-92
2023/08/08 05:30:10;;;;;;;1.60;1.50;;;13.20;99.90;;;;;;5075064;28;20469;-92
2023/08/08 05:32:37;;;;;;;1.63;1.53;;;13.10;99.90;;;;;;5073893;28;20466;-91
2023/08/08 05:35:04;;;;;;;1.60;1.50;;;13.10;99.90;;;;;;5043384;28;20459;-91
2023/08/08 05:37:31;;;;;;;2.20;1.67;;;13.10;99.90;;;;;;5065662;28;21057;-91
2023/08/08 05:39:58;;;;;;;1.30;1.20;;;13.10;99.90;;;;;;5073624;28;20828;-92
2023/08/08 05:42:26;;;;;;;1.87;1.60;;;13.10;99.90;;;;;;5074410;28;20482;-91
2023/08/08 05:44:53;;;;;;;1.50;1.40;;;13.10;99.90;;;;;;5074476;28;20469;-92
2023/08/08 05:47:19;;;;;;;2.13;1.60;;;13.10;99.90;;;;;;5073455;28;20487;-91
2023/08/08 05:49:46;;;;;;;2.37;1.80;;;13.20;99.90;;;;;;5073534;28;20455;-90
2023/08/08 05:52:13;;;;;;;1.33;1.17;;;13.20;99.90;;;;;;5071176;28;20543;-91
2023/08/08 05:54:40;;;;;;;2.30;1.63;;;13.20;99.90;;;;;;5072422;28;20858;-90
2023/08/08 05:57:07;;;;;;;1.47;1.37;;;13.20;99.90;;;;;;5073072;28;20470;-90
2023/08/08 05:59:35;;;;;;;2.03;1.57;;;13.30;99.90;;;;;;5072552;28;20466;-90
2023/08/08 06:02:02;;;;;;;1.30;1.20;;;13.40;99.90;;;;;;5072963;28;20556;-90
2023/08/08 06:04:29;;;;;;;2.13;1.30;;;13.40;99.90;;;;;;5074115;28;21011;-93
2023/08/08 06:06:55;;;;;;;1.33;1.13;;;13.50;99.90;;;;;;5072111;28;20485;-91
2023/08/08 06:09:22;;;;;;;1.40;1.30;;;13.60;99.90;;;;;;5072372;28;20454;-90
2023/08/08 06:11:49;;;;;;;1.30;1.10;;;13.70;99.90;;;;;;5071858;28;20833;-91
2023/08/08 06:14:16;;;;;;;1.53;1.33;;;13.70;99.90;;;;;;5072885;28;20466;-91
2023/08/08 06:16:46;;;;;;;1.57;1.40;;;13.80;99.90;;;;;;5072159;28;20455;-91
2023/08/08 06:19:14;;;;;;;1.63;1.30;;;13.90;99.90;;;;;;5056323;28;20513;-91
2023/08/08 06:21:41;;;;;;;4.13;1.30;;;14.00;99.90;;;;;;5072337;28;20557;-91
2023/08/08 06:24:08;;;;;;;2.00;1.53;;;14.10;99.90;;;;;;5072269;28;20848;-90
2023/08/08 06:26:35;;;;;;;2.20;1.30;;;14.10;99.90;;;;;;5073254;28;20462;-91
2023/08/08 06:29:01;;;;;;;2.70;1.30;;;14.10;99.90;;;;;;5072959;28;20467;-90
2023/08/08 06:31:28;;;;;;;1.73;1.60;;;14.20;99.90;;;;;;5073224;28;20493;-91
2023/08/08 06:33:56;;;;;;;2.30;1.77;;;14.30;99.90;;;;;;5071906;28;20971;-91
2023/08/08 06:36:23;;;;;;;2.00;1.37;;;14.40;99.90;;;;;;5072408;28;20455;-90
2023/08/08 06:38:50;;;;;;;1.30;1.20;;;14.40;99.90;;;;;;5073861;28;20477;-91
2023/08/08 06:41:16;;;;;;;1.30;1.20;;;14.40;99.90;;;;;;5072210;28;20488;-92
2023/08/08 06:43:43;;;;;;;2.20;1.37;;;14.50;99.90;;;;;;5072483;28;20451;-91
2023/08/08 06:46:10;;;;;;;1.50;1.33;;;14.60;99.90;;;;;;5071831;28;20453;-91
2023/08/08 06:48:36;;;;;;;1.90;1.50;;;14.70;99.90;;;;;;5071795;28;20478;-91
2023/08/08 06:51:05;;;;;;;1.77;1.50;;;14.80;99.90;;;;;;5071598;28;20465;-91
2023/08/08 06:53:32;;;;;;;1.63;1.43;;;14.90;99.90;;;;;;5071770;28;20496;-89
2023/08/08 06:55:58;;;;;;;2.07;1.27;;;15.00;99.90;;;;;;5065783;28;20476;-90
2023/08/08 06:58:25;;;;;;;1.23;1.13;;;15.10;99.90;;;;;;5073015;28;20482;-88
2023/08/08 07:00:52;;;;;;;3.00;1.60;;;15.20;99.90;;;;;;5072422;28;20459;-89
2023/08/08 07:03:19;;;;;;;1.33;1.23;;;15.20;99.90;;;;;;5072153;28;20974;-89
2023/08/08 07:05:47;;;;;;;1.67;1.50;;;15.30;99.90;;;;;;5068006;28;20981;-88
2023/08/08 07:08:15;;;;;;;1.70;1.40;;;15.40;99.90;;;;;;5074470;28;20512;-87
2023/08/08 07:10:45;;;;;;;1.53;1.43;;;15.60;99.90;;;;;;5073767;28;20564;-91
2023/08/08 07:13:12;;;;;;;1.40;1.20;;;15.60;99.90;;;;;;5072563;28;20522;-88
2023/08/08 07:15:39;;;;;;;1.60;1.43;;;15.60;99.90;;;;;;5072332;28;20460;-90
2023/08/08 07:18:06;;;;;;;1.60;1.40;;;15.70;99.90;;;;;;5072006;28;20847;-89
2023/08/08 07:20:33;;;;;;;3.63;1.60;;;15.80;99.90;;;;;;5072127;28;20552;-89
2023/08/08 07:23:01;;;;;;;1.50;1.30;;;15.80;99.90;;;;;;5072201;28;20487;-89
2023/08/08 07:25:29;;;;;;;1.70;1.50;;;15.90;99.90;;;;;;5072212;28;20495;-89
2023/08/08 07:27:56;;;;;;;1.50;1.40;;;16.00;99.90;;;;;;5071705;28;20478;-92
2023/08/08 07:30:25;;;;;;;1.60;1.30;;;16.00;99.90;;;;;;5066565;28;21025;-91
2023/08/08 07:32:52;;;;;;;1.57;1.30;;;16.10;99.90;;;;;;5059186;28;20457;-91
2023/08/08 07:35:19;;;;;;;1.90;1.60;;;16.20;99.90;;;;;;5063637;28;20465;-91
2023/08/08 07:37:46;;;;;;;1.37;1.27;;;16.30;99.90;;;;;;5070458;28;20901;-91
2023/08/08 07:40:18;;;;;;;1.50;1.40;;;16.40;99.90;;;;;;5070235;28;20519;-91
2023/08/08 07:42:46;;;;;;;1.87;1.30;;;16.50;99.90;;;;;;5071566;28;20540;-91
2023/08/08 07:45:13;;;;;;;1.97;1.37;;;16.60;99.90;;;;;;5071616;28;20470;-92
2023/08/08 07:47:40;;;;;;;1.93;1.40;;;16.70;99.90;;;;;;5071066;28;20492;-91
2023/08/08 07:50:09;;;;;;;1.93;1.40;;;16.80;99.90;;;;;;5072629;28;21038;-92
2023/08/08 07:52:36;;;;;;;2.33;1.43;;;17.00;99.90;;;;;;5075772;28;20955;-92
2023/08/08 07:55:03;;;;;;;2.13;1.93;;;17.10;99.90;;;;;;5075292;28;20458;-93
2023/08/08 07:57:30;;;;;;;2.03;1.30;;;17.10;99.90;;;;;;5076212;28;20478;-92
2023/08/08 07:59:58;;;;;;;1.43;1.33;;;17.20;99.90;;;;;;5075189;28;20454;-93
2023/08/08 08:02:24;;;;;;;1.97;1.30;;;17.20;99.90;;;;;;5075020;28;20488;-92
2023/08/08 08:04:51;;;;;;;1.43;1.33;;;17.20;99.90;;;;;;5070429;28;20956;-92
2023/08/08 08:07:18;;;;;;;1.43;1.33;;;17.20;99.90;;;;;;5074626;28;20938;-92
2023/08/08 08:09:45;;;;;;;1.63;1.33;;;17.20;99.90;;;;;;5073743;28;20455;-91
2023/08/08 08:12:31;;;;;;;1.47;1.33;;;17.20;99.90;;;;;;5076011;28;20461;-90
2023/08/08 08:15:02;;;;;;;1.47;1.37;;;17.30;99.90;;;;;;5075872;28;20483;-90
2023/08/08 08:18:33;;;;;;;2.60;1.40;;;17.30;99.90;;;;;;5076794;28;20761;-90
2023/08/08 08:22:05;;;;;;;2.00;1.40;;;17.40;99.90;;;;;;5081633;28;20454;-91
2023/08/08 08:25:23;;;;;;;1.60;1.20;;;17.50;99.90;;;;;;5069117;28;20463;-91
2023/08/08 08:28:09;;;;;;;1.83;1.60;;;17.60;99.90;;;;;;5078555;28;20466;-90
2023/08/08 08:31:05;;;;;;;3.10;1.53;;;17.70;99.90;;;;;;5075222;28;20462;-89
2023/08/08 08:36:56;;;;;;;1.50;1.40;;;17.70;99.90;;;;;;5019889;22;20501;-72
2023/08/08 08:39:23;;;;;;;1.40;1.30;;;17.80;99.90;;;;;;5054639;28;20530;-72
2023/08/08 08:41:54;;;;;;;2.13;1.50;;;17.90;99.90;;;;;;5055724;28;20483;-71
2023/08/08 08:44:22;;;;;;;1.57;1.33;;;17.90;99.90;;;;;;5056001;28;20452;-73
2023/08/08 08:46:53;;;;;;;1.60;1.13;;;18.00;99.90;;;;;;5055555;28;20466;-71
2023/08/08 08:49:22;;;;;;;1.73;1.63;;;18.10;99.90;;;;;;5053032;28;20479;-70
2023/08/08 08:51:49;;;;;;;1.97;1.43;;;18.10;99.90;;;;;;5053848;28;20452;-72
2023/08/08 08:54:16;;;;;;;2.43;1.83;;;18.10;99.90;;;;;;5054687;28;20463;-71
2023/08/08 08:56:43;;;;;;;1.60;1.50;;;18.10;99.90;;;;;;5052615;28;20460;-70
2023/08/08 08:59:10;;;;;;;3.37;1.67;;;18.10;99.90;;;;;;5051127;28;20471;-70
2023/08/08 09:01:37;;;;;;;1.77;1.57;;;18.10;99.90;;;;;;5051245;28;20452;-69
2023/08/08 09:04:08;;;;;;;1.40;1.30;;;18.20;99.90;;;;;;5052623;28;20534;-72
2023/08/08 09:06:35;;;;;;;1.80;1.50;;;18.30;99.90;;;;;;5055895;28;20517;-73
2023/08/08 09:09:04;;;;;;;2.83;1.73;;;18.40;99.90;;;;;;5054679;28;20479;-73
2023/08/08 09:11:30;;;;;;;2.40;1.33;;;18.50;99.90;;;;;;5038619;28;20456;-72
2023/08/08 09:13:57;;;;;;;1.70;1.27;;;18.50;99.90;;;;;;5053406;28;20471;-71
2023/08/08 09:16:25;;;;;;;2.07;1.53;;;18.60;99.90;;;;;;5052278;28;20460;-71
2023/08/08 09:18:53;;;;;;;1.33;1.13;;;18.70;99.90;;;;;;5052944;28;20997;-70
2023/08/08 09:21:21;;;;;;;2.47;1.37;;;18.70;99.90;;;;;;5054249;28;20465;-71
2023/08/08 09:23:48;;;;;;;3.67;1.30;;;18.80;99.90;;;;;;5052574;28;20483;-71
2023/08/08 09:26:16;;;;;;;3.23;1.13;;;19.00;99.90;;;;;;5052691;28;20463;-71
2023/08/08 09:28:43;;;;;;;1.87;1.37;;;19.10;99.90;;;;;;5042404;28;20483;-70
2023/08/08 09:31:10;;;;;;;1.13;1.03;;;19.10;99.90;;;;;;5045553;28;20465;-69
2023/08/08 09:33:39;;;;;;;1.73;1.57;;;19.20;99.90;;;;;;5042110;28;20460;-70
2023/08/08 09:36:06;;;;;;;1.47;1.23;;;19.20;99.90;;;;;;5051395;28;20466;-71
2023/08/08 09:38:35;;;;;;;1.20;1.00;;;19.20;99.90;;;;;;5052964;28;20481;-71
2023/08/08 09:41:02;;;;;;;2.97;1.47;;;19.40;99.90;;;;;;5045972;28;20472;-70
2023/08/08 09:43:29;;;;;;;1.53;1.33;;;19.40;99.90;;;;;;5052153;28;20483;-70
2023/08/08 09:45:55;;;;;;;1.83;1.33;;;19.40;99.90;;;;;;5051570;28;20459;-70
2023/08/08 09:48:23;;;;;;;1.67;1.33;;;19.40;99.90;;;;;;5045899;28;20485;-70
2023/08/08 09:50:50;;;;;;;2.17;1.63;;;19.50;99.90;;;;;;5052789;28;20468;-71
2023/08/08 09:53:19;;;;;;;1.83;1.40;;;19.70;99.90;;;;;;5052580;28;20498;-71
2023/08/08 09:55:47;;;;;;;1.73;1.13;;;19.80;99.90;;;;;;5052232;28;20456;-70
2023/08/08 09:58:15;;;;;;;1.50;1.37;;;20.00;99.90;;;;;;5047898;28;20999;-71
2023/08/08 10:00:42;;;;;;;1.27;1.17;;;20.10;99.90;;;;;;5053171;28;20461;-71
2023/08/08 10:03:09;;;;;;;2.30;1.40;;;20.20;99.90;;;;;;5053352;28;20478;-72
2023/08/08 10:05:37;;;;;;;3.10;1.43;;;20.20;99.90;;;;;;5051077;28;20459;-70
2023/08/08 10:08:04;;;;;;;1.80;1.13;;;20.10;99.90;;;;;;5049750;28;20483;-69
2023/08/08 10:10:31;;;;;;;1.97;1.40;;;20.20;99.90;;;;;;5049720;28;20466;-69
2023/08/08 10:13:00;;;;;;;1.50;1.30;;;20.10;99.90;;;;;;5050331;28;20464;-69
2023/08/08 10:15:27;;;;;;;1.77;1.30;;;20.20;99.90;;;;;;5050395;28;20456;-70
2023/08/08 10:17:56;;;;;;;1.37;1.20;;;20.30;99.90;;;;;;5049952;28;20461;-70
2023/08/08 10:20:23;;;;;;;2.57;1.30;;;20.40;99.90;;;;;;5050191;28;20454;-70
2023/08/08 10:22:54;;;;;;;2.20;1.83;;;20.40;99.90;;;;;;5049622;28;20510;-69
2023/08/08 10:25:26;;;;;;;2.07;1.70;;;20.50;99.90;;;;;;5050199;28;20465;-70
2023/08/08 10:28:05;;;;;;;1.57;1.40;;;20.50;99.90;;;;;;5049704;28;20482;-70
2023/08/08 10:30:43;;;;;;;1.40;1.13;;;20.40;99.90;;;;;;5049769;28;20462;-69
2023/08/08 10:33:16;;;;;;;2.00;1.40;;;20.40;99.90;;;;;;5050346;28;20458;-69
2023/08/08 10:35:55;;;;;;;1.73;1.37;;;20.40;99.90;;;;;;5049255;28;20467;-69
2023/08/08 10:38:22;;;;;;;1.60;1.40;;;20.60;99.90;;;;;;5049324;28;21057;-69
2023/08/08 10:40:56;;;;;;;1.70;1.60;;;20.80;99.90;;;;;;5050093;28;20462;-69
2023/08/08 10:43:28;;;;;;;1.20;1.10;;;20.90;99.90;;;;;;5050125;28;20485;-69
2023/08/08 10:45:59;;;;;;;1.87;1.50;;;21.10;99.90;;;;;;5049303;28;20468;-69
2023/08/08 10:48:26;;;;;;;2.23;1.47;;;21.10;99.90;;;;;;5049377;28;20482;-72
2023/08/08 10:50:56;;;;;;;3.20;1.83;;;21.20;99.90;;;;;;5051719;28;20459;-71
2023/08/08 10:53:25;;;;;;;1.50;1.37;;;21.20;99.90;;;;;;5050807;28;20448;-73
2023/08/08 10:55:59;;;;;;;2.13;1.30;;;21.10;99.90;;;;;;5049902;28;20466;-72
2023/08/08 10:58:37;;;;;;;1.43;1.30;;;21.20;99.90;;;;;;5051208;28;20830;-69
2023/08/08 11:01:07;;;;;;;1.50;1.40;;;21.40;99.90;;;;;;5050529;28;20467;-72
2023/08/08 11:03:35;;;;;;;2.53;1.30;;;21.50;99.90;;;;;;5051656;28;20487;-70
2023/08/08 11:06:03;;;;;;;3.90;1.40;;;21.50;99.90;;;;;;5051171;28;20468;-71
2023/08/08 11:08:30;;;;;;;1.30;1.20;;;21.60;99.90;;;;;;5051421;28;20513;-70
2023/08/08 11:10:58;;;;;;;1.73;1.27;;;21.50;99.90;;;;;;5046289;28;20459;-71
2023/08/08 11:13:24;;;;;;;2.60;1.50;;;21.40;99.90;;;;;;5052746;28;20450;-71
2023/08/08 11:15:53;;;;;;;3.70;1.50;;;21.20;99.90;;;;;;5051321;28;20455;-70
2023/08/08 11:18:20;;;;;;;1.40;1.10;;;21.10;99.90;;;;;;5051380;28;21067;-71
2023/08/08 11:20:47;;;;;;;2.20;1.20;;;21.00;99.90;;;;;;5050703;28;20455;-70
2023/08/08 11:23:14;;;;;;;2.20;1.20;;;21.00;99.90;;;;;;5050929;28;20534;-70
2023/08/08 11:25:42;;;;;;;1.37;1.07;;;21.10;99.90;;;;;;5051847;28;20459;-70
2023/08/08 11:28:09;;;;;;;1.20;1.10;;;21.40;99.90;;;;;;5054795;28;20475;-69
2023/08/08 11:30:38;;;;;;;2.80;1.77;;;21.70;99.90;;;;;;5056050;28;20542;-70
2023/08/08 11:33:07;;;;;;;1.50;1.40;;;21.90;99.90;;;;;;5055059;28;20992;-72
2023/08/08 11:35:34;;;;;;;2.30;1.57;;;21.90;99.90;;;;;;5055321;28;20471;-72
2023/08/08 11:38:04;;;;;;;5.00;1.33;;;21.70;99.90;;;;;;5053052;28;20505;-70
2023/08/08 11:40:32;;;;;;;1.13;1.03;;;21.70;99.90;;;;;;5054346;28;20460;-71
2023/08/08 11:43:00;;;;;;;1.73;1.20;;;21.60;99.80;;;;;;5053568;28;20882;-73
2023/08/08 11:45:27;;;;;;;1.33;1.23;;;21.60;99.90;;;;;;5053598;28;20547;-71
2023/08/08 11:47:56;;;;;;;1.47;1.20;;;21.70;99.80;;;;;;5054482;28;20467;-70
2023/08/08 11:50:25;;;;;;;2.23;1.40;;;21.90;99.90;;;;;;5055385;28;20453;-72
2023/08/08 11:52:53;;;;;;;1.30;1.13;;;22.10;99.60;;;;;;5056826;28;20767;-70
2023/08/08 11:55:22;;;;;;;2.40;1.40;;;22.20;99.90;;;;;;5055017;28;20452;-69
2023/08/08 11:57:49;;;;;;;2.80;1.53;;;22.20;99.90;;;;;;5052349;28;20460;-70
2023/08/08 12:00:17;;;;;;;1.37;1.17;;;22.10;99.90;;;;;;5052190;28;20471;-70
2023/08/08 12:02:44;;;;;;;1.50;1.20;;;22.20;99.90;;;;;;5054369;28;20899;-71
2023/08/08 12:05:16;;;;;;;2.30;1.37;;;22.40;99.90;;;;;;5055820;28;20468;-73
2023/08/08 12:07:45;;;;;;;1.30;1.10;;;22.70;99.90;;;;;;5054833;28;20456;-69
2023/08/08 12:10:17;;;;;;;1.40;1.30;;;22.80;99.80;;;;;;5052846;28;20914;-69
2023/08/08 12:12:44;;;;;;;1.60;1.40;;;22.90;99.90;;;;;;5035784;28;20481;-69
2023/08/08 12:15:12;;;;;;;3.97;1.57;;;22.90;99.90;;;;;;5074021;22;20713;-69
2023/08/08 12:17:39;;;;;;;1.40;1.30;;;22.90;99.80;;;;;;5087348;28;20531;-70
2023/08/08 12:20:07;;;;;;;2.30;1.20;;;22.70;99.20;;;;;;5086388;28;20460;-69
2023/08/08 12:22:34;;;;;;;1.53;1.37;;;22.60;99.90;;;;;;5083352;28;20863;-69
2023/08/08 12:25:02;;;;;;;1.50;1.30;;;22.50;99.90;;;;;;5087407;28;20455;-69
2023/08/08 12:27:30;;;;;;;2.17;1.20;;;22.40;99.90;;;;;;5082484;28;20968;-69
2023/08/08 12:29:57;;;;;;;1.33;1.20;;;22.30;99.90;;;;;;5084348;28;20501;-69
2023/08/08 12:32:28;;;;;;;1.50;1.30;;;22.20;99.90;;;;;;5076163;28;20478;-68
2023/08/08 12:34:55;;;;;;;1.67;1.20;;;22.00;99.60;;;;;;5092194;28;20508;-69
2023/08/08 12:37:23;;;;;;;2.37;1.40;;;21.70;99.90;;;;;;5091449;28;20837;-70
2023/08/08 12:39:49;;;;;;;2.63;1.50;;;21.60;99.90;;;;;;5084142;28;20502;-69
2023/08/08 12:42:18;;;;;;;1.50;1.30;;;21.50;99.90;;;;;;5084641;28;20450;-69
2023/08/08 12:44:44;;;;;;;1.40;1.13;;;21.50;99.90;;;;;;5083949;28;20481;-69
2023/08/08 12:47:11;;;;;;;1.50;1.20;;;21.60;99.90;;;;;;5092665;28;20458;-69
2023/08/08 12:49:38;;;;;;;1.53;1.43;;;21.70;99.90;;;;;;5081490;28;20474;-70
2023/08/08 12:52:05;;;;;;;1.37;1.20;;;21.80;99.90;;;;;;5066473;28;20971;-70
2023/08/08 12:54:32;;;;;;;2.03;1.40;;;21.90;99.90;;;;;;5061765;28;20455;-71
2023/08/08 12:56:59;;;;;;;1.60;1.30;;;22.10;99.90;;;;;;5071957;28;20447;-71